Time;durP1;ratioP1;P1;durP2;ratioP2;P2;SDS_P1;SDS_P2;PMS_P1;PMS_P2;Temp;Humidity;BMP_temperature;BMP_pressure;BME280_temperature;BME280_humidity;BME280_pressure;Samples;Min_cycle;Max_cycle;Signal;HPM_P1;HPM_P2
2023/09/27 00:02:51;;;;;;;4.00;1.50;;;24.30;75.70;;;;;;10526707;28;20055;-38
2023/09/27 00:07:53;;;;;;;2.03;1.13;;;24.30;75.80;;;;;;10528146;28;20481;-34
2023/09/27 00:12:56;;;;;;;3.47;1.52;;;24.30;75.90;;;;;;10520729;28;20087;-37
2023/09/27 00:18:01;;;;;;;4.65;1.65;;;24.30;76.00;;;;;;10516765;28;20090;-39
2023/09/27 00:23:05;;;;;;;3.78;1.55;;;24.20;76.10;;;;;;10523486;28;20139;-38
2023/09/27 00:28:08;;;;;;;2.42;1.35;;;24.30;76.10;;;;;;10526698;28;20389;-39
2023/09/27 00:33:10;;;;;;;3.65;1.35;;;24.30;76.20;;;;;;10529775;28;20048;-31
2023/09/27 00:38:12;;;;;;;2.20;1.60;;;24.20;76.30;;;;;;10527055;28;20059;-36
2023/09/27 00:43:28;;;;;;;;;;;24.20;76.40;;;;;;10523432;28;20131;-35
2023/09/27 00:48:31;;;;;;;2.10;1.40;;;24.20;76.50;;;;;;10529216;28;19963;-37
2023/09/27 00:53:35;;;;;;;1.88;1.58;;;24.10;76.50;;;;;;10528223;28;20101;-35
2023/09/27 00:58:38;;;;;;;2.28;1.30;;;24.10;76.60;;;;;;10533186;28;20062;-35
2023/09/27 01:03:40;;;;;;;4.82;1.80;;;24.10;76.80;;;;;;10518048;28;20067;-31
2023/09/27 01:08:42;;;;;;;4.43;1.30;;;24.10;76.90;;;;;;10499702;28;20267;-32
2023/09/27 01:13:45;;;;;;;;;;;24.10;76.90;;;;;;10526544;28;20140;-36
2023/09/27 01:18:48;;;;;;;3.10;1.73;;;24.10;77.00;;;;;;10523992;28;20335;-32
2023/09/27 01:23:51;;;;;;;2.67;1.75;;;24.10;77.10;;;;;;10523581;28;20125;-32
2023/09/27 01:28:53;;;;;;;2.40;1.40;;;24.00;77.10;;;;;;10518263;28;20140;-38
2023/09/27 01:33:55;;;;;;;;;;;24.00;77.00;;;;;;10524633;28;20048;-40
2023/09/27 01:38:58;;;;;;;;;;;24.00;77.40;;;;;;10514059;28;20335;-40
2023/09/27 01:44:00;;;;;;;2.90;1.25;;;24.00;77.50;;;;;;10527614;28;19950;-40
2023/09/27 01:49:02;;;;;;;;;;;24.00;77.70;;;;;;10501955;28;20045;-34
2023/09/27 01:54:07;;;;;;;2.72;1.30;;;23.90;77.50;;;;;;10511014;28;20026;-35
2023/09/27 01:59:08;;;;;;;3.10;1.42;;;23.90;77.80;;;;;;10511081;28;20083;-39
2023/09/27 02:04:10;;;;;;;;;;;23.90;77.90;;;;;;10527354;28;20469;-36
2023/09/27 02:09:14;;;;;;;1.83;1.20;;;23.90;78.00;;;;;;10519830;28;19959;-35
2023/09/27 02:14:16;;;;;;;2.20;1.48;;;23.90;78.00;;;;;;10511274;28;20143;-37
2023/09/27 02:19:18;;;;;;;2.15;1.65;;;23.90;78.00;;;;;;10517744;28;20078;-33
2023/09/27 02:24:21;;;;;;;2.53;1.50;;;23.90;78.10;;;;;;10521536;28;20411;-33
2023/09/27 02:29:23;;;;;;;2.80;1.50;;;23.90;78.20;;;;;;10514283;28;20079;-35
2023/09/27 02:34:26;;;;;;;2.17;1.58;;;23.80;78.10;;;;;;10503100;28;20075;-34
2023/09/27 02:39:30;;;;;;;3.65;1.75;;;23.80;78.30;;;;;;10498202;28;20044;-35
2023/09/27 02:44:32;;;;;;;1.63;1.25;;;23.80;78.30;;;;;;10526229;28;20059;-31
2023/09/27 02:49:35;;;;;;;2.33;1.40;;;23.80;78.40;;;;;;10525865;28;20044;-41
2023/09/27 02:54:39;;;;;;;4.93;1.70;;;23.70;78.40;;;;;;10526372;28;20059;-38
2023/09/27 03:15:31;;;;;;;4.47;1.58;;;23.60;79.60;;;;;;10562677;27;20108;-32
2023/09/27 03:20:33;;;;;;;3.17;1.50;;;23.60;79.60;;;;;;10566351;27;20036;-38
2023/09/27 03:25:35;;;;;;;;;;;23.60;79.50;;;;;;10565706;27;20429;-38
2023/09/27 03:30:38;;;;;;;3.40;1.70;;;23.60;79.70;;;;;;10561445;28;20233;-38
2023/09/27 03:35:41;;;;;;;3.55;1.70;;;23.60;79.60;;;;;;10569735;28;20040;-32
2023/09/27 03:40:43;;;;;;;2.30;1.35;;;23.60;79.70;;;;;;10564968;28;20119;-32
2023/09/27 03:45:47;;;;;;;2.42;1.60;;;23.60;79.70;;;;;;10564630;28;20052;-35
2023/09/27 03:50:48;;;;;;;2.85;1.20;;;23.60;79.90;;;;;;10560724;28;20055;-36
2023/09/27 03:55:50;;;;;;;2.35;1.25;;;23.60;79.80;;;;;;10561284;28;20131;-32
2023/09/27 04:00:54;;;;;;;4.85;1.52;;;23.60;79.90;;;;;;10568434;28;20060;-34
2023/09/27 04:05:57;;;;;;;5.70;1.45;;;23.60;80.40;;;;;;10573839;28;20058;-39
2023/09/27 04:10:59;;;;;;;2.63;1.50;;;23.60;79.80;;;;;;10557200;28;20101;-35
2023/09/27 04:16:03;;;;;;;4.22;1.60;;;23.60;80.00;;;;;;10569041;28;20076;-36
2023/09/27 04:21:08;;;;;;;2.67;1.38;;;23.60;80.00;;;;;;10560303;28;20083;-32
2023/09/27 04:26:10;;;;;;;3.78;1.63;;;23.60;80.20;;;;;;10533772;28;20131;-40
2023/09/27 04:31:13;;;;;;;;;;;23.60;80.20;;;;;;10531976;28;20067;-33
2023/09/27 04:36:17;;;;;;;2.45;1.50;;;23.60;80.20;;;;;;10530125;28;19953;-34
2023/09/27 04:41:20;;;;;;;4.22;1.48;;;23.60;80.30;;;;;;10522283;28;20047;-31
2023/09/27 04:46:23;;;;;;;4.50;1.60;;;23.60;80.50;;;;;;10530130;28;20082;-33
2023/09/27 04:51:25;;;;;;;2.78;1.60;;;23.60;80.30;;;;;;10525985;28;20495;-33
2023/09/27 04:56:27;;;;;;;;;;;23.50;80.40;;;;;;10532507;28;20134;-31
2023/09/27 05:01:30;;;;;;;5.13;1.40;;;23.60;80.50;;;;;;10527835;28;19920;-33
2023/09/27 05:06:32;;;;;;;4.63;1.70;;;23.50;80.70;;;;;;10524007;28;20074;-37
2023/09/27 05:11:34;;;;;;;2.13;1.30;;;23.50;80.70;;;;;;10520217;28;20109;-35
2023/09/27 05:16:40;;;;;;;;;;;23.50;81.20;;;;;;10525042;28;20078;-41
2023/09/27 05:21:42;;;;;;;2.50;1.30;;;23.50;81.10;;;;;;10532180;28;19928;-32
2023/09/27 05:26:44;;;;;;;4.03;1.20;;;23.50;81.10;;;;;;10524540;28;20126;-36
2023/09/27 05:31:47;;;;;;;;;;;23.50;81.00;;;;;;10516323;28;20148;-36
2023/09/27 05:36:50;;;;;;;2.60;1.27;;;23.50;81.00;;;;;;10525669;28;20334;-32
2023/09/27 05:41:52;;;;;;;2.40;1.33;;;23.50;80.80;;;;;;10505991;28;20538;-32
2023/09/27 05:46:55;;;;;;;;;;;23.50;80.60;;;;;;10513451;28;20572;-42
2023/09/27 05:51:57;;;;;;;2.65;1.50;;;23.50;80.50;;;;;;10528653;28;20031;-36
2023/09/27 05:56:59;;;;;;;;;;;23.50;80.50;;;;;;10527594;28;20507;-36
2023/09/27 06:02:02;;;;;;;2.53;1.53;;;23.60;80.50;;;;;;10526816;28;19923;-34
2023/09/27 06:07:04;;;;;;;2.08;1.48;;;23.50;80.50;;;;;;10524750;28;20650;-39
2023/09/27 06:12:07;;;;;;;2.67;1.45;;;23.50;80.70;;;;;;10524633;28;20108;-41
2023/09/27 06:17:15;;;;;;;2.85;1.27;;;23.50;80.70;;;;;;10524103;28;20048;-31
2023/09/27 06:22:21;;;;;;;2.22;1.60;;;23.50;80.70;;;;;;10519648;28;20047;-42
2023/09/27 06:27:23;;;;;;;4.88;1.55;;;23.50;80.70;;;;;;10526532;28;20098;-37
2023/09/27 06:32:26;;;;;;;4.68;1.80;;;23.50;80.60;;;;;;10525431;28;20048;-43
2023/09/27 06:37:29;;;;;;;6.75;1.58;;;23.50;80.80;;;;;;10513571;28;20225;-37
2023/09/27 06:42:30;;;;;;;4.35;1.80;;;23.50;80.80;;;;;;10522550;28;20043;-38
2023/09/27 06:47:35;;;;;;;4.95;1.63;;;23.50;80.70;;;;;;10522530;28;20505;-36
2023/09/27 06:52:39;;;;;;;7.40;3.20;;;23.50;80.70;;;;;;10515108;28;20071;-30
2023/09/27 06:57:41;;;;;;;5.22;1.98;;;23.50;80.80;;;;;;10507415;28;20056;-36
2023/09/27 07:02:46;;;;;;;5.10;1.92;;;23.50;80.50;;;;;;10523298;28;20130;-31
2023/09/27 07:07:48;;;;;;;6.75;2.22;;;23.50;80.50;;;;;;10523740;28;20052;-32
2023/09/27 07:12:50;;;;;;;3.10;1.88;;;23.50;80.60;;;;;;10528840;28;20439;-35
2023/09/27 07:17:53;;;;;;;3.60;2.20;;;23.50;80.40;;;;;;10526365;28;20048;-32
2023/09/27 07:22:56;;;;;;;2.45;1.50;;;23.50;80.30;;;;;;10531524;28;20475;-38
2023/09/27 07:27:58;;;;;;;4.22;2.00;;;23.60;80.30;;;;;;10520889;28;20060;-35
2023/09/27 07:33:03;;;;;;;2.67;1.63;;;23.50;80.30;;;;;;10528268;28;20454;-42
2023/09/27 07:38:07;;;;;;;3.00;1.65;;;23.50;80.30;;;;;;10513927;28;20078;-33
2023/09/27 07:43:09;;;;;;;4.80;3.20;;;23.60;80.20;;;;;;10525394;28;20044;-39
2023/09/27 07:48:12;;;;;;;;;;;23.60;80.50;;;;;;10513157;28;20532;-46
2023/09/27 07:53:14;;;;;;;3.35;2.08;;;23.60;80.50;;;;;;10516194;28;19973;-31
2023/09/27 07:58:16;;;;;;;5.95;2.53;;;23.50;80.70;;;;;;10522317;28;20451;-39
2023/09/27 08:03:21;;;;;;;4.35;2.30;;;23.60;80.90;;;;;;10505171;28;20048;-47
2023/09/27 08:08:23;;;;;;;5.85;2.22;;;23.60;81.00;;;;;;10505898;28;20063;-38
2023/09/27 08:13:28;;;;;;;5.13;2.13;;;23.60;81.10;;;;;;10525163;28;20055;-40
2023/09/27 08:18:31;;;;;;;4.47;2.17;;;23.60;81.10;;;;;;10525682;28;20048;-33
2023/09/27 08:23:33;;;;;;;4.35;2.00;;;23.60;81.30;;;;;;10529977;28;20044;-36
2023/09/27 08:28:35;;;;;;;5.25;2.05;;;23.60;81.20;;;;;;10515048;28;20734;-34
2023/09/27 08:33:38;;;;;;;4.47;1.70;;;23.70;81.30;;;;;;10520430;28;20170;-36
2023/09/27 08:38:40;;;;;;;5.50;2.10;;;23.70;81.30;;;;;;10529263;28;20043;-31
2023/09/27 08:43:41;;;;;;;;;;;23.60;81.20;;;;;;10526955;28;20548;-35
2023/09/27 08:48:45;;;;;;;3.03;1.88;;;23.60;81.20;;;;;;10528327;28;20007;-35
2023/09/27 08:53:48;;;;;;;9.00;1.88;;;23.70;81.20;;;;;;10524676;28;20052;-33
2023/09/27 08:58:50;;;;;;;;;;;23.70;81.20;;;;;;10520973;28;21154;-41
2023/09/27 09:03:53;;;;;;;7.88;2.35;;;23.70;81.50;;;;;;10515259;28;21524;-30
2023/09/27 09:08:55;;;;;;;3.75;2.03;;;23.70;81.30;;;;;;10515692;28;20137;-40
2023/09/27 09:13:58;;;;;;;3.20;2.03;;;23.70;81.40;;;;;;10527435;28;20161;-33
2023/09/27 09:19:19;;;;;;;7.55;2.00;;;23.70;81.20;;;;;;10520984;28;20051;-36
2023/09/27 09:24:21;;;;;;;5.85;2.22;;;23.70;81.10;;;;;;10535167;28;20123;-39
2023/09/27 09:29:24;;;;;;;9.82;2.15;;;23.80;81.10;;;;;;10524153;28;20036;-38
2023/09/27 09:34:27;;;;;;;2.50;1.83;;;23.80;81.10;;;;;;10517595;28;20048;-35
2023/09/27 09:39:30;;;;;;;6.00;2.55;;;23.80;80.80;;;;;;10527823;28;20498;-36
2023/09/27 09:44:31;;;;;;;;;;;23.80;81.20;;;;;;10525700;28;20460;-32
2023/09/27 09:49:35;;;;;;;6.90;2.73;;;23.90;81.50;;;;;;10512419;28;20263;-33
2023/09/27 09:54:41;;;;;;;9.40;3.28;;;23.80;85.60;;;;;;10515342;28;20044;-35
2023/09/27 09:59:59;;;;;;;7.75;3.00;;;23.80;83.20;;;;;;10523905;28;20063;-39
2023/09/27 10:05:06;;;;;;;11.38;4.88;;;23.90;82.40;;;;;;10525651;28;20054;-36
2023/09/27 10:10:09;;;;;;;10.85;3.25;;;23.80;83.30;;;;;;10522733;28;20046;-44
2023/09/27 10:15:12;;;;;;;6.32;3.10;;;23.90;82.40;;;;;;10528641;28;20051;-39
2023/09/27 10:20:19;;;;;;;9.23;4.07;;;23.90;83.10;;;;;;10517414;28;20127;-38
2023/09/27 10:25:34;;;;;;;8.82;3.55;;;23.90;82.70;;;;;;10513248;28;20052;-41
2023/09/27 10:31:12;;;;;;;7.68;3.17;;;23.90;82.90;;;;;;10513543;28;20035;-41
2023/09/27 10:36:31;;;;;;;7.70;3.70;;;24.10;82.00;;;;;;10390374;28;20195;-34
2023/09/27 10:41:44;;;;;;;6.30;3.22;;;24.10;81.80;;;;;;10492488;28;20041;-36
2023/09/27 10:46:48;;;;;;;7.45;3.38;;;24.10;82.20;;;;;;10520542;28;20489;-38
2023/09/27 10:51:52;;;;;;;6.05;3.33;;;24.20;80.80;;;;;;10524504;28;20059;-30
2023/09/27 10:56:56;;;;;;;9.38;3.08;;;24.00;82.60;;;;;;10521666;28;20058;-53
2023/09/27 11:01:59;;;;;;;11.07;3.55;;;24.20;81.30;;;;;;10512091;28;20405;-38
2023/09/27 11:07:02;;;;;;;9.07;2.63;;;24.10;82.20;;;;;;10514972;28;20134;-41
2023/09/27 11:12:04;;;;;;;6.15;2.60;;;24.30;80.70;;;;;;10516807;28;20127;-34
2023/09/27 11:17:15;;;;;;;4.28;2.13;;;24.20;81.10;;;;;;10513836;28;20127;-35
2023/09/27 11:22:26;;;;;;;4.73;2.63;;;24.30;80.40;;;;;;10524395;28;20044;-32
2023/09/27 11:27:28;;;;;;;7.55;2.67;;;24.30;80.60;;;;;;10521254;28;20486;-39
2023/09/27 11:32:48;;;;;;;;;;;24.40;83.30;;;;;;10520211;28;20136;-41
2023/09/27 11:38:05;;;;;;;10.55;3.75;;;24.40;80.70;;;;;;10527510;28;19973;-33
2023/09/27 11:43:07;;;;;;;5.18;2.10;;;24.50;82.60;;;;;;10513303;28;20048;-42
2023/09/27 11:48:09;;;;;;;7.80;2.88;;;24.50;81.00;;;;;;10524752;28;20108;-36
2023/09/27 11:53:14;;;;;;;4.60;2.38;;;24.50;81.20;;;;;;10513643;28;20054;-35
2023/09/27 11:58:16;;;;;;;3.22;1.85;;;24.60;80.60;;;;;;10507840;28;20048;-33
2023/09/27 12:03:18;;;;;;;4.18;2.35;;;24.60;80.80;;;;;;10512953;28;20044;-34
2023/09/27 12:08:21;;;;;;;;;;;24.90;79.60;;;;;;10530544;28;20080;-35
2023/09/27 12:13:23;;;;;;;4.97;1.90;;;24.90;78.10;;;;;;10520623;28;20368;-38
2023/09/27 12:18:26;;;;;;;4.03;2.10;;;25.10;76.90;;;;;;10534431;28;20604;-37
2023/09/27 12:23:29;;;;;;;5.55;2.47;;;25.30;76.70;;;;;;10522253;28;20044;-37
2023/09/27 12:28:33;;;;;;;6.82;3.25;;;25.10;76.90;;;;;;10521601;28;20036;-36
2023/09/27 12:33:36;;;;;;;4.53;1.90;;;25.10;78.10;;;;;;10516210;28;20048;-33
2023/09/27 12:38:40;;;;;;;4.25;2.78;;;25.50;74.70;;;;;;10506110;28;20455;-41
2023/09/27 12:43:41;;;;;;;2.75;2.10;;;25.40;75.70;;;;;;10524094;28;20048;-41
2023/09/27 12:48:43;;;;;;;6.50;2.92;;;25.60;74.60;;;;;;10529643;28;20049;-37
2023/09/27 12:53:46;;;;;;;;;;;25.60;75.50;;;;;;10521728;28;20088;-41
2023/09/27 12:58:49;;;;;;;5.05;1.70;;;25.90;74.20;;;;;;10526618;28;19928;-34
2023/09/27 13:03:51;;;;;;;4.28;2.22;;;26.30;71.90;;;;;;10532308;28;20105;-42
2023/09/27 13:08:54;;;;;;;3.22;2.00;;;26.70;71.90;;;;;;10514361;28;20050;-35
2023/09/27 13:13:56;;;;;;;10.75;2.67;;;27.00;70.20;;;;;;10515011;28;20079;-38
2023/09/27 13:18:58;;;;;;;6.15;2.28;;;27.20;68.80;;;;;;10516796;28;20113;-36
2023/09/27 13:24:02;;;;;;;4.85;2.10;;;27.10;69.20;;;;;;10516069;28;20055;-42
2023/09/27 13:29:04;;;;;;;3.83;1.80;;;26.80;69.50;;;;;;10525879;28;20127;-33
2023/09/27 13:34:06;;;;;;;5.25;1.90;;;26.50;70.50;;;;;;10512788;28;20489;-35
2023/09/27 13:39:14;;;;;;;2.75;1.73;;;26.40;71.10;;;;;;10520710;28;20052;-35
2023/09/27 13:44:16;;;;;;;4.85;2.45;;;26.70;71.20;;;;;;10521881;28;20571;-36
2023/09/27 13:49:18;;;;;;;5.03;2.28;;;26.80;68.90;;;;;;10496344;28;20127;-36
2023/09/27 13:54:21;;;;;;;4.10;1.70;;;26.60;69.70;;;;;;10508082;28;20138;-35
2023/09/27 13:59:23;;;;;;;4.85;2.10;;;26.40;70.50;;;;;;10519235;28;20136;-39
2023/09/27 14:04:25;;;;;;;2.72;1.48;;;26.50;70.70;;;;;;10515146;28;20118;-38
2023/09/27 14:09:28;;;;;;;4.38;1.65;;;26.30;71.40;;;;;;10522407;28;20048;-39
2023/09/27 14:14:30;;;;;;;3.17;1.33;;;26.30;70.80;;;;;;10521183;28;20044;-50
2023/09/27 14:19:32;;;;;;;3.50;1.60;;;26.30;71.60;;;;;;10519269;28;20142;-32
2023/09/27 14:24:35;;;;;;;4.70;1.83;;;26.30;70.90;;;;;;10515894;28;20071;-34
2023/09/27 14:29:37;;;;;;;2.35;1.73;;;26.30;70.80;;;;;;10514318;28;20888;-32
2023/09/27 14:34:40;;;;;;;2.72;1.73;;;26.30;71.00;;;;;;10510432;28;20133;-43
2023/09/27 14:39:43;;;;;;;2.33;1.75;;;26.50;69.60;;;;;;10519668;28;20421;-39
2023/09/27 14:44:45;;;;;;;3.35;1.60;;;27.00;68.80;;;;;;10527133;28;20048;-39
2023/09/27 14:49:47;;;;;;;3.28;2.35;;;27.20;68.10;;;;;;10529238;28;20044;-35
2023/09/27 14:54:50;;;;;;;5.80;2.40;;;26.90;68.80;;;;;;10520583;28;20091;-36
2023/09/27 14:59:52;;;;;;;3.30;2.03;;;26.60;69.50;;;;;;10514713;28;20465;-35
2023/09/27 15:04:55;;;;;;;6.35;2.03;;;26.60;70.70;;;;;;10522544;28;20118;-33
2023/09/27 15:09:58;;;;;;;5.63;2.10;;;26.30;71.10;;;;;;10513263;28;20459;-38
2023/09/27 15:15:00;;;;;;;4.95;2.25;;;26.40;71.20;;;;;;10518374;28;20145;-36
2023/09/27 15:20:05;;;;;;;2.00;1.70;;;26.50;71.70;;;;;;10510698;28;20382;-36
2023/09/27 15:25:10;;;;;;;2.67;1.88;;;26.50;71.00;;;;;;10523450;28;20039;-34
2023/09/27 15:30:12;;;;;;;5.70;2.03;;;26.30;71.90;;;;;;10516042;28;20079;-33
2023/09/27 15:35:15;;;;;;;3.47;1.95;;;26.50;72.00;;;;;;10517230;28;20590;-31
2023/09/27 15:40:19;;;;;;;4.88;1.83;;;26.50;71.50;;;;;;10501886;28;20050;-43
2023/09/27 15:45:23;;;;;;;2.70;1.60;;;26.50;71.00;;;;;;10510000;28;20171;-39
2023/09/27 15:50:25;;;;;;;2.50;1.80;;;26.60;71.00;;;;;;10509087;28;20040;-39
2023/09/27 15:55:29;;;;;;;4.38;2.15;;;26.50;71.30;;;;;;10510649;28;20106;-32
2023/09/27 16:00:30;;;;;;;3.83;1.88;;;26.40;71.60;;;;;;10519029;28;20060;-38
2023/09/27 16:05:32;;;;;;;4.03;2.00;;;26.30;72.40;;;;;;10519769;28;20044;-38
2023/09/27 16:10:35;;;;;;;6.10;2.00;;;26.30;72.90;;;;;;10516288;28;20093;-33
2023/09/27 16:15:37;;;;;;;3.42;1.80;;;26.30;72.40;;;;;;10512362;28;20125;-38
2023/09/27 16:20:39;;;;;;;3.45;1.58;;;26.40;72.80;;;;;;10515947;28;20131;-35
2023/09/27 16:25:43;;;;;;;3.25;1.63;;;26.20;72.80;;;;;;10523964;28;20122;-38
2023/09/27 16:30:46;;;;;;;2.00;1.60;;;26.20;74.00;;;;;;10521596;28;20745;-36
2023/09/27 16:35:49;;;;;;;2.63;1.55;;;26.20;74.40;;;;;;10529635;28;20167;-40
2023/09/27 16:40:53;;;;;;;1.95;1.48;;;26.20;74.20;;;;;;10513990;28;20417;-39
2023/09/27 16:45:54;;;;;;;5.47;1.80;;;26.20;74.40;;;;;;10520090;28;20123;-41
2023/09/27 16:50:56;;;;;;;3.63;1.63;;;26.10;74.30;;;;;;10527816;28;20048;-35
2023/09/27 16:56:00;;;;;;;2.20;1.80;;;26.10;74.40;;;;;;10524071;28;20040;-35
2023/09/27 17:01:02;;;;;;;2.25;1.67;;;26.10;74.20;;;;;;10521738;28;20139;-40
2023/09/27 17:06:04;;;;;;;3.13;1.77;;;26.10;74.40;;;;;;10509868;28;20135;-31
2023/09/27 17:11:08;;;;;;;4.38;1.70;;;26.00;73.90;;;;;;10528266;28;20592;-44
2023/09/27 17:16:10;;;;;;;4.18;2.75;;;26.10;73.50;;;;;;10508437;28;20048;-37
2023/09/27 17:21:11;;;;;;;4.05;1.98;;;26.10;73.90;;;;;;10498457;28;20881;-36
2023/09/27 17:26:15;;;;;;;2.67;1.95;;;25.90;74.50;;;;;;10522032;28;20139;-30
2023/09/27 17:31:17;;;;;;;2.50;1.70;;;26.00;74.30;;;;;;10513057;28;20488;-35
2023/09/27 17:36:18;;;;;;;3.53;1.80;;;26.00;74.30;;;;;;10526181;28;20485;-38
2023/09/27 17:41:22;;;;;;;3.92;2.25;;;26.10;74.30;;;;;;10523110;28;20048;-33
2023/09/27 17:46:26;;;;;;;4.82;1.65;;;26.10;74.30;;;;;;10522815;28;20098;-32
2023/09/27 17:51:29;;;;;;;2.85;1.52;;;26.10;74.60;;;;;;10511593;28;20051;-44
2023/09/27 17:56:33;;;;;;;3.25;1.60;;;26.00;75.00;;;;;;10517826;28;20055;-43
2023/09/27 18:01:34;;;;;;;4.35;2.47;;;26.00;74.60;;;;;;10514547;28;20050;-36
2023/09/27 18:06:36;;;;;;;2.97;1.73;;;25.90;74.90;;;;;;10517506;28;20071;-38
2023/09/27 18:11:39;;;;;;;3.65;1.85;;;26.00;74.90;;;;;;10517121;28;20135;-36
2023/09/27 18:16:42;;;;;;;4.18;2.33;;;26.00;74.90;;;;;;10519962;28;20052;-42
2023/09/27 18:21:45;;;;;;;6.45;1.88;;;26.00;74.80;;;;;;10535933;28;20627;-40
2023/09/27 18:26:48;;;;;;;2.72;1.67;;;26.00;74.90;;;;;;10530279;28;20155;-36
2023/09/27 18:31:50;;;;;;;2.63;1.60;;;26.00;75.00;;;;;;10525147;28;20048;-36
2023/09/27 18:36:52;;;;;;;3.03;2.03;;;25.90;75.00;;;;;;10526223;28;20142;-38
2023/09/27 18:41:56;;;;;;;2.10;1.73;;;25.90;75.40;;;;;;10524153;28;20063;-36
2023/09/27 18:46:57;;;;;;;4.50;2.03;;;25.90;74.50;;;;;;10521405;28;20052;-36
2023/09/27 18:52:02;;;;;;;3.80;1.80;;;25.90;75.20;;;;;;10525002;28;20439;-47
2023/09/27 18:57:06;;;;;;;2.78;2.15;;;25.90;75.30;;;;;;10521209;28;20044;-38
2023/09/27 19:02:08;;;;;;;3.38;2.17;;;25.80;75.90;;;;;;10505897;28;20048;-34
2023/09/27 19:07:10;;;;;;;4.50;2.28;;;25.90;76.10;;;;;;10518616;28;20616;-39
2023/09/27 19:12:14;;;;;;;3.95;1.83;;;25.90;75.20;;;;;;10511752;28;20156;-33
2023/09/27 19:17:16;;;;;;;2.95;1.95;;;25.80;75.80;;;;;;10514250;28;20365;-32
2023/09/27 19:22:18;;;;;;;3.33;2.03;;;25.80;75.50;;;;;;10524900;28;20040;-37
2023/09/27 19:27:21;;;;;;;2.30;1.58;;;25.80;75.70;;;;;;10524393;28;20044;-29
2023/09/27 19:32:24;;;;;;;2.38;2.03;;;25.70;76.10;;;;;;10517869;28;20067;-38
2023/09/27 19:37:26;;;;;;;3.65;2.20;;;25.50;76.30;;;;;;10517342;28;20048;-34
2023/09/27 19:42:29;;;;;;;3.75;2.20;;;25.40;76.80;;;;;;10524053;28;20044;-39
2023/09/27 19:47:32;;;;;;;2.97;1.92;;;25.40;77.30;;;;;;10528036;28;20150;-39
2023/09/27 19:52:36;;;;;;;2.33;1.95;;;25.40;77.00;;;;;;10521447;28;20043;-34
2023/09/27 19:57:39;;;;;;;2.60;1.88;;;25.30;77.80;;;;;;10530512;28;20055;-43
2023/09/27 20:02:41;;;;;;;3.35;2.25;;;25.40;76.70;;;;;;10541092;28;20169;-38
2023/09/27 20:07:45;;;;;;;5.85;2.75;;;25.20;77.70;;;;;;10523374;28;20050;-32
2023/09/27 20:12:49;;;;;;;7.85;2.75;;;25.20;77.20;;;;;;10519610;28;20725;-32
2023/09/27 20:17:51;;;;;;;1.90;1.63;;;24.60;77.80;;;;;;10524060;28;20471;-40
2023/09/27 20:22:53;;;;;;;2.47;2.00;;;24.90;79.30;;;;;;10530136;28;20042;-44
2023/09/27 20:27:56;;;;;;;2.88;1.77;;;25.00;79.00;;;;;;10516475;28;20052;-31
2023/09/27 20:32:58;;;;;;;3.90;1.70;;;25.00;78.20;;;;;;10527787;28;20044;-32
2023/09/27 20:38:05;;;;;;;3.42;1.75;;;25.00;78.60;;;;;;10526642;28;20092;-33
2023/09/27 20:43:08;;;;;;;4.00;2.20;;;25.10;77.70;;;;;;10510704;28;20040;-43
2023/09/27 20:48:11;;;;;;;4.05;2.05;;;25.00;78.00;;;;;;10511702;28;20243;-31
2023/09/27 20:53:13;;;;;;;3.40;2.05;;;25.10;77.60;;;;;;10518027;28;20052;-29
2023/09/27 20:58:17;;;;;;;2.97;1.48;;;25.30;77.00;;;;;;10508953;28;20412;-33
2023/09/27 21:03:19;;;;;;;2.90;1.92;;;25.20;77.10;;;;;;10525656;28;20055;-34
2023/09/27 21:08:21;;;;;;;4.95;1.80;;;25.20;76.80;;;;;;10527848;28;20049;-41
2023/09/27 21:13:25;;;;;;;2.58;1.50;;;25.20;76.90;;;;;;10529232;28;20052;-31
2023/09/27 21:18:27;;;;;;;3.42;1.75;;;25.10;78.00;;;;;;10517569;28;20048;-41
2023/09/27 21:23:29;;;;;;;3.05;2.30;;;25.20;76.70;;;;;;10528292;28;20489;-36
2023/09/27 21:28:33;;;;;;;2.50;1.50;;;25.20;76.60;;;;;;10518728;28;20044;-37
2023/09/27 21:33:36;;;;;;;3.05;2.17;;;25.20;76.40;;;;;;10514004;28;20045;-38
2023/09/27 21:38:38;;;;;;;3.03;1.95;;;25.20;76.20;;;;;;10511036;28;20047;-42
2023/09/27 21:43:42;;;;;;;3.45;1.73;;;25.10;76.80;;;;;;10509082;28;20044;-37
2023/09/27 21:48:44;;;;;;;3.28;1.70;;;24.90;77.80;;;;;;10512987;28;20145;-34
2023/09/27 21:53:46;;;;;;;4.88;2.08;;;25.00;78.00;;;;;;10522909;28;20044;-35
2023/09/27 21:58:50;;;;;;;2.92;1.63;;;24.80;77.60;;;;;;10515987;28;20091;-40
2023/09/27 22:03:52;;;;;;;4.63;1.80;;;24.70;78.60;;;;;;10521845;28;20139;-50
2023/09/27 22:08:55;;;;;;;2.47;1.95;;;24.80;77.70;;;;;;10522991;28;20479;-34
2023/09/27 22:14:04;;;;;;;2.47;1.90;;;24.80;78.20;;;;;;10518185;28;20063;-36
2023/09/27 22:19:11;;;;;;;2.03;1.67;;;24.70;79.00;;;;;;10513524;28;20147;-46
2023/09/27 22:24:15;;;;;;;2.67;1.98;;;24.60;79.80;;;;;;10524165;28;20036;-34
2023/09/27 22:29:18;;;;;;;2.33;1.75;;;24.70;79.00;;;;;;10501645;28;20040;-40
2023/09/27 22:34:23;;;;;;;2.63;1.83;;;24.70;78.90;;;;;;10499057;28;20044;-36
2023/09/27 22:39:26;;;;;;;4.30;2.63;;;24.90;78.30;;;;;;10511470;28;20051;-35
2023/09/27 22:44:32;;;;;;;3.45;2.00;;;24.10;80.40;;;;;;10497503;28;20040;-40
2023/09/27 22:49:36;;;;;;;3.00;1.83;;;24.30;81.80;;;;;;10492346;28;20040;-33
2023/09/27 22:54:39;;;;;;;2.45;1.88;;;24.30;81.00;;;;;;10493844;28;20446;-34
2023/09/27 22:59:43;;;;;;;8.20;2.97;;;24.40;81.80;;;;;;10526240;28;20134;-40
2023/09/27 23:04:51;;;;;;;3.67;1.95;;;23.50;84.90;;;;;;10525505;28;20075;-31
2023/09/27 23:10:03;;;;;;;4.20;2.42;;;23.80;85.90;;;;;;10526059;28;20135;-37
2023/09/27 23:15:10;;;;;;;4.53;2.67;;;24.00;84.10;;;;;;10524331;28;20052;-38
2023/09/27 23:20:17;;;;;;;7.22;2.97;;;23.70;86.30;;;;;;10526847;28;20131;-34
2023/09/27 23:30:49;;;;;;;7.80;3.40;;;23.60;87.20;;;;;;10530086;28;20079;-32
2023/09/27 23:35:51;;;;;;;3.22;1.95;;;23.40;88.40;;;;;;10529525;28;20056;-40
2023/09/27 23:40:53;;;;;;;7.05;2.72;;;23.70;86.90;;;;;;10534010;28;20044;-31
2023/09/27 23:45:57;;;;;;;4.57;2.55;;;23.40;89.20;;;;;;10536502;28;20051;-37
2023/09/27 23:51:00;;;;;;;7.15;2.63;;;23.00;91.40;;;;;;10535566;28;20060;-36
2023/09/27 23:56:02;;;;;;;3.63;2.22;;;23.30;90.30;;;;;;10533514;28;20059;-38
